createdAt,value
2022-08-29T00:00:53.185Z,99882.41
2022-08-29T00:03:32.530Z,99878.10
2022-08-29T00:06:09.085Z,99877.15
2022-08-29T00:08:43.268Z,99882.41
2022-08-29T00:11:13.886Z,99886.89
2022-08-29T00:14:20.924Z,99890.98
2022-08-29T00:16:56.835Z,99896.52
2022-08-29T00:19:38.513Z,99899.00
2022-08-29T00:22:11.970Z,99900.84
2022-08-29T00:24:41.915Z,99898.57
2022-08-29T00:27:20.079Z,99898.31
2022-08-29T00:29:50.829Z,99902.62
2022-08-29T00:32:22.278Z,99899.09
2022-08-29T00:34:54.000Z,99897.42
2022-08-29T00:37:26.164Z,99894.11
2022-08-29T00:39:56.441Z,99896.89
2022-08-29T00:42:35.758Z,99894.86
2022-08-29T00:45:12.036Z,99892.38
2022-08-29T00:47:49.379Z,99900.17
2022-08-29T00:50:30.389Z,99898.91
2022-08-29T00:53:05.660Z,99904.69
2022-08-29T00:55:37.846Z,99901.55
2022-08-29T00:58:25.824Z,99902.66
2022-08-29T01:00:59.082Z,99904.02
2022-08-29T01:03:35.549Z,99903.26
2022-08-29T01:06:07.659Z,99902.23
2022-08-29T01:08:39.723Z,99912.09
2022-08-29T01:11:41.235Z,99908.09
2022-08-29T01:14:25.267Z,99916.36
2022-08-29T01:17:09.024Z,99918.30
2022-08-29T01:20:22.179Z,99914.93
2022-08-29T01:23:23.658Z,99924.96
2022-08-29T01:25:57.252Z,99927.74
2022-08-29T01:28:50.751Z,99938.27
2022-08-29T01:32:21.043Z,99946.06
2022-08-29T01:34:59.978Z,99956.48
2022-08-29T01:37:44.230Z,99962.52
2022-08-29T01:40:43.413Z,99959.41
2022-08-29T01:43:23.014Z,99956.89
2022-08-29T01:46:42.652Z,99959.52
2022-08-29T01:49:16.037Z,99964.67
2022-08-29T01:51:46.343Z,99968.58
2022-08-29T01:54:17.571Z,99974.39
2022-08-29T01:57:07.600Z,99977.57
2022-08-29T01:59:41.542Z,99983.81
2022-08-29T02:02:22.858Z,99981.73
2022-08-29T02:04:56.841Z,99977.27
2022-08-29T02:07:31.079Z,99984.31
2022-08-29T02:10:00.235Z,99984.63
2022-08-29T02:12:33.423Z,99985.73
2022-08-29T02:15:10.630Z,99985.91
2022-08-29T02:17:40.582Z,99985.83
2022-08-29T02:20:25.265Z,99988.81
2022-08-29T02:23:00.404Z,99988.41
2022-08-29T02:25:43.453Z,99986.25
2022-08-29T02:28:18.800Z,99988.24
2022-08-29T02:30:56.908Z,99984.20
2022-08-29T02:33:31.531Z,99986.39
2022-08-29T02:36:05.727Z,99987.11
2022-08-29T02:38:40.444Z,99986.60
2022-08-29T02:41:15.681Z,99988.66
2022-08-29T02:43:46.853Z,99990.06
2022-08-29T02:46:18.948Z,99992.63
2022-08-29T02:49:00.429Z,99994.10
2022-08-29T02:51:33.205Z,99989.98
2022-08-29T02:54:05.056Z,99991.05
2022-08-29T02:56:37.046Z,99991.14
2022-08-29T02:59:14.613Z,99991.00
2022-08-29T03:01:56.535Z,99989.27
2022-08-29T03:04:34.664Z,99988.63
2022-08-29T03:07:08.401Z,99989.45
2022-08-29T03:09:45.768Z,99984.73
2022-08-29T03:12:16.945Z,99989.88
2022-08-29T03:14:51.453Z,99990.09
2022-08-29T03:17:28.066Z,99992.70
2022-08-29T03:20:23.794Z,99993.52
2022-08-29T03:23:05.040Z,99992.09
2022-08-29T03:25:39.177Z,99990.81
2022-08-29T03:28:09.096Z,99992.32
2022-08-29T03:30:42.382Z,99987.73
2022-08-29T03:33:17.031Z,99984.84
2022-08-29T03:35:58.117Z,99990.88
2022-08-29T03:38:33.702Z,99995.46
2022-08-29T03:41:05.223Z,99999.44
2022-08-29T03:43:36.501Z,99998.27
2022-08-29T03:46:08.136Z,99997.34
2022-08-29T03:48:38.831Z,100002.55
2022-08-29T03:51:12.499Z,100001.42
2022-08-29T03:53:45.289Z,100007.69
2022-08-29T03:56:18.921Z,100011.27
2022-08-29T03:58:53.434Z,100013.45
2022-08-29T04:01:26.726Z,100014.83
2022-08-29T04:03:59.849Z,100017.05
2022-08-29T04:06:39.099Z,100017.19
2022-08-29T04:09:13.853Z,100020.23
2022-08-29T04:11:50.271Z,100019.77
2022-08-29T04:14:21.633Z,100019.98
2022-08-29T04:16:54.175Z,100019.80
2022-08-29T04:19:25.486Z,100019.05
2022-08-29T04:21:58.216Z,100021.73
2022-08-29T04:24:29.359Z,100025.40
2022-08-29T04:27:21.462Z,100028.48
2022-08-29T04:29:55.891Z,100033.73
2022-08-29T04:32:34.182Z,100039.95
2022-08-29T04:35:05.615Z,100042.64
2022-08-29T04:37:37.103Z,100044.44
2022-08-29T04:40:09.629Z,100043.85
2022-08-29T04:42:40.211Z,100048.80
2022-08-29T04:45:13.822Z,100044.30
2022-08-29T04:47:44.118Z,100047.73
2022-08-29T04:50:38.419Z,100043.62
2022-08-29T04:53:08.061Z,100044.45
2022-08-29T04:55:40.541Z,100040.11
2022-08-29T04:58:11.645Z,100042.66
2022-08-29T05:00:42.502Z,100042.29
2022-08-29T05:03:12.784Z,100045.80
2022-08-29T05:05:43.846Z,100045.95
2022-08-29T05:08:15.680Z,100045.09
2022-08-29T05:11:11.052Z,100052.35
2022-08-29T05:13:43.320Z,100053.10
2022-08-29T05:16:30.283Z,100056.55
2022-08-29T05:19:02.897Z,100054.28
2022-08-29T05:21:58.511Z,100058.24
2022-08-29T05:24:30.039Z,100057.66
2022-08-29T05:27:00.337Z,100052.83
2022-08-29T05:29:54.337Z,100052.08
2022-08-29T05:32:44.428Z,100056.05
2022-08-29T05:35:16.122Z,100057.70
2022-08-29T05:38:09.154Z,100060.91
2022-08-29T05:40:39.515Z,100063.38
2022-08-29T05:43:11.511Z,100066.84
2022-08-29T05:45:42.254Z,100062.37
2022-08-29T05:48:16.933Z,100065.27
2022-08-29T05:50:52.335Z,100062.40
2022-08-29T05:53:25.084Z,100063.70
2022-08-29T05:55:57.183Z,100065.68
2022-08-29T05:58:27.283Z,100068.01
2022-08-29T06:01:01.355Z,100068.92
2022-08-29T06:03:58.050Z,100070.56
2022-08-29T06:06:31.793Z,100071.36
2022-08-29T06:09:05.692Z,100070.63
2022-08-29T06:11:58.813Z,100071.69
2022-08-29T06:14:29.683Z,100071.67
2022-08-29T06:17:04.968Z,100078.64
2022-08-29T06:19:38.600Z,100077.41
2022-08-29T06:22:10.021Z,100081.65
2022-08-29T06:24:45.801Z,100084.15
2022-08-29T06:27:17.247Z,100087.77
2022-08-29T06:29:48.278Z,100087.90
2022-08-29T06:32:17.718Z,100085.79
2022-08-29T06:34:48.723Z,100092.66
2022-08-29T06:37:20.531Z,100091.69
2022-08-29T06:39:51.406Z,100093.03
2022-08-29T06:42:25.675Z,100099.48
2022-08-29T06:44:59.471Z,100101.07
2022-08-29T06:47:30.514Z,100104.00
2022-08-29T06:50:05.784Z,100105.66
2022-08-29T06:52:36.479Z,100108.10
2022-08-29T06:55:12.757Z,100109.45
2022-08-29T06:57:46.519Z,100110.68
2022-08-29T07:00:23.716Z,100110.61
2022-08-29T07:02:55.144Z,100113.69
2022-08-29T07:05:26.062Z,100115.48
2022-08-29T07:07:55.283Z,100119.13
2022-08-29T07:10:51.821Z,100122.22
2022-08-29T07:13:28.181Z,100123.13
2022-08-29T07:16:20.214Z,100128.19
2022-08-29T07:18:53.924Z,100123.77
2022-08-29T07:22:39.374Z,100129.56
2022-08-29T07:25:14.761Z,100131.16
2022-08-29T07:27:44.623Z,100137.15
2022-08-29T07:30:30.482Z,100137.65
2022-08-29T07:33:04.023Z,100138.15
2022-08-29T07:35:34.593Z,100137.43
2022-08-29T07:38:07.646Z,100136.32
2022-08-29T07:40:37.124Z,100136.20
2022-08-29T07:43:08.885Z,100140.05
2022-08-29T07:45:41.601Z,100136.74
2022-08-29T07:48:19.899Z,100139.73
2022-08-29T07:51:00.571Z,100137.23
2022-08-29T07:53:32.061Z,100134.70
2022-08-29T07:56:08.920Z,100135.52
2022-08-29T07:58:40.197Z,100135.33
2022-08-29T08:01:21.199Z,100135.48
2022-08-29T08:03:52.831Z,100137.49
2022-08-29T08:06:27.875Z,100139.88
2022-08-29T08:09:01.941Z,100136.86
2022-08-29T08:11:33.723Z,100141.42
2022-08-29T08:14:04.663Z,100140.33
2022-08-29T08:16:35.443Z,100145.66
2022-08-29T08:19:07.422Z,100143.44
2022-08-29T08:21:46.932Z,100155.86
2022-08-29T08:24:21.213Z,100152.51
2022-08-29T08:26:51.019Z,100156.42
2022-08-29T08:29:21.381Z,100155.17
2022-08-29T08:32:06.071Z,100154.70
2022-08-29T08:34:39.711Z,100159.77
2022-08-29T08:37:11.204Z,100158.30
2022-08-29T08:39:47.194Z,100168.44
2022-08-29T08:42:36.949Z,100166.23
2022-08-29T08:45:17.153Z,100166.27
2022-08-29T08:48:11.912Z,100167.11
2022-08-29T08:50:43.257Z,100172.77
2022-08-29T08:53:29.411Z,100177.98
2022-08-29T08:56:05.974Z,100179.79
2022-08-29T08:58:42.185Z,100180.31
2022-08-29T09:01:46.987Z,100172.89
2022-08-29T09:05:20.064Z,100171.35
2022-08-29T09:08:43.708Z,100176.05
2022-08-29T09:11:42.757Z,100173.31
2022-08-29T09:14:43.704Z,100173.34
2022-08-29T09:17:36.489Z,100173.21
2022-08-29T09:20:34.261Z,100175.86
2022-08-29T09:23:13.715Z,100171.98
2022-08-29T09:25:46.735Z,100172.73
2022-08-29T09:31:34.820Z,100181.89
2022-08-29T09:34:57.394Z,100190.66
2022-08-29T09:37:37.340Z,100185.27
2022-08-29T09:40:37.372Z,100185.73
2022-08-29T09:43:12.066Z,100187.93
2022-08-29T09:46:11.521Z,100189.70
2022-08-29T09:48:45.807Z,100185.10
2022-08-29T09:51:26.000Z,100183.02
2022-08-29T09:54:12.816Z,100187.55
2022-08-29T09:57:28.310Z,100183.96
2022-08-29T10:04:38.026Z,100181.72
2022-08-29T10:07:24.327Z,100187.23
2022-08-29T10:09:58.149Z,100188.23
2022-08-29T10:12:35.100Z,100184.52
2022-08-29T10:15:19.670Z,100194.50
2022-08-29T10:18:39.131Z,100196.06
2022-08-29T10:25:38.814Z,100188.14
2022-08-29T10:28:32.266Z,100189.94
2022-08-29T10:31:02.525Z,100185.72
2022-08-29T10:33:44.182Z,100184.53
2022-08-29T10:36:26.778Z,100186.17
2022-08-29T10:39:12.820Z,100182.51
2022-08-29T10:42:06.406Z,100186.64
2022-08-29T10:45:16.053Z,100179.60
2022-08-29T10:48:07.872Z,100179.78
2022-08-29T10:51:18.303Z,100182.96
2022-08-29T10:53:55.529Z,100182.08
2022-08-29T10:56:31.283Z,100184.94
2022-08-29T10:59:29.247Z,100177.59
2022-08-29T11:02:19.756Z,100173.61
2022-08-29T11:04:57.476Z,100174.41
2022-08-29T11:07:36.017Z,100176.77
2022-08-29T11:10:31.699Z,100185.36
2022-08-29T11:13:11.499Z,100174.63
2022-08-29T11:16:14.519Z,100170.87
2022-08-29T11:18:55.721Z,100176.89
2022-08-29T11:21:28.346Z,100174.04
2022-08-29T11:24:04.465Z,100176.18
2022-08-29T11:27:04.138Z,100180.42
2022-08-29T11:29:40.406Z,100180.17
2022-08-29T11:32:22.478Z,100181.44
2022-08-29T11:35:28.322Z,100186.17
2022-08-29T11:38:36.971Z,100185.50
2022-08-29T11:41:32.447Z,100186.52
2022-08-29T11:44:20.124Z,100180.63
2022-08-29T11:46:56.750Z,100186.02
2022-08-29T11:49:39.703Z,100189.17
2022-08-29T11:52:13.803Z,100186.64
2022-08-29T11:55:23.219Z,100191.08
2022-08-29T11:58:05.193Z,100198.20
2022-08-29T12:00:44.510Z,100200.30
2022-08-29T12:06:47.274Z,100198.83
2022-08-29T12:09:27.375Z,100196.88
2022-08-29T12:15:34.517Z,100195.27
2022-08-29T12:18:36.627Z,100197.92
2022-08-29T12:21:31.056Z,100195.57
2022-08-29T12:24:04.065Z,100194.61
2022-08-29T12:26:48.001Z,100193.14
2022-08-29T12:29:43.572Z,100203.15
2022-08-29T12:32:22.907Z,100205.55
2022-08-29T12:35:13.149Z,100206.53
2022-08-29T12:38:26.077Z,100206.47
2022-08-29T12:41:27.057Z,100212.70
2022-08-29T12:44:00.615Z,100210.13
2022-08-29T12:46:40.681Z,100196.85
2022-08-29T12:49:23.547Z,100208.81
2022-08-29T12:52:22.459Z,100205.58
2022-08-29T12:54:56.455Z,100206.32
2022-08-29T12:57:36.109Z,100202.79
2022-08-29T13:00:12.771Z,100197.48
2022-08-29T13:03:00.987Z,100203.58
2022-08-29T13:05:33.392Z,100207.25
2022-08-29T13:08:13.073Z,100200.56
2022-08-29T13:10:59.541Z,100199.73
2022-08-29T13:13:32.368Z,100197.51
2022-08-29T13:16:06.700Z,100197.80
2022-08-29T13:18:53.598Z,100198.79
2022-08-29T13:22:41.901Z,100195.48
2022-08-29T13:25:13.660Z,100192.02
2022-08-29T13:27:43.217Z,100189.42
2022-08-29T13:30:24.126Z,100186.52
2022-08-29T13:32:59.050Z,100190.80
2022-08-29T13:35:34.265Z,100189.27
2022-08-29T13:38:30.596Z,100185.16
2022-08-29T13:41:02.154Z,100182.67
2022-08-29T13:43:44.615Z,100181.39
2022-08-29T13:46:27.810Z,100184.34
2022-08-29T13:49:03.604Z,100178.77
2022-08-29T13:51:35.347Z,100180.11
2022-08-29T13:54:06.612Z,100170.20
2022-08-29T13:59:13.540Z,100164.98
2022-08-29T14:04:39.809Z,100168.05
2022-08-29T14:07:14.519Z,100163.59
2022-08-29T14:09:46.103Z,100165.55
2022-08-29T14:12:17.455Z,100169.09
2022-08-29T14:14:50.179Z,100170.00
2022-08-29T14:17:23.560Z,100176.83
2022-08-29T14:19:54.392Z,100176.02
2022-08-29T14:22:25.129Z,100174.15
2022-08-29T14:24:56.254Z,100179.33
2022-08-29T14:27:26.236Z,100177.70
2022-08-29T14:29:56.043Z,100180.14
2022-08-29T14:32:27.280Z,100180.83
2022-08-29T14:34:59.761Z,100174.97
2022-08-29T14:37:29.333Z,100179.50
2022-08-29T14:40:01.726Z,100175.25
2022-08-29T14:42:33.822Z,100171.64
2022-08-29T14:45:06.044Z,100169.55
2022-08-29T14:47:35.353Z,100168.49
2022-08-29T14:50:09.852Z,100172.39
2022-08-29T14:53:00.920Z,100167.13
2022-08-29T14:55:34.186Z,100163.12
2022-08-29T14:58:06.563Z,100164.65
2022-08-29T15:00:38.487Z,100161.66
2022-08-29T15:03:09.461Z,100165.09
2022-08-29T15:05:39.559Z,100167.55
2022-08-29T15:08:15.496Z,100164.66
2022-08-29T15:10:47.455Z,100163.73
2022-08-29T15:13:18.073Z,100165.05
2022-08-29T15:15:49.448Z,100165.55
2022-08-29T15:18:59.518Z,100163.59
2022-08-29T15:25:30.283Z,100156.13
2022-08-29T15:28:21.865Z,100152.53
2022-08-29T15:30:52.816Z,100154.23
2022-08-29T15:33:23.547Z,100154.29
2022-08-29T15:35:52.987Z,100155.43
2022-08-29T15:38:24.248Z,100156.58
2022-08-29T15:40:54.213Z,100156.84
2022-08-29T15:43:41.388Z,100157.93
2022-08-29T15:46:16.245Z,100156.17
2022-08-29T15:48:53.064Z,100157.05
2022-08-29T15:51:24.562Z,100159.45
2022-08-29T15:53:56.398Z,100158.27
2022-08-29T15:56:35.508Z,100156.66
2022-08-29T15:59:07.361Z,100158.69
2022-08-29T16:01:52.414Z,100161.50
2022-08-29T16:04:25.144Z,100162.14
2022-08-29T16:06:55.852Z,100163.60
2022-08-29T16:09:34.034Z,100164.52
2022-08-29T16:12:17.078Z,100169.03
2022-08-29T16:15:09.797Z,100172.33
2022-08-29T16:17:41.412Z,100162.77
2022-08-29T16:20:41.781Z,100164.16
2022-08-29T16:27:06.055Z,100169.08
2022-08-29T16:29:40.018Z,100171.02
2022-08-29T16:32:10.315Z,100176.98
2022-08-29T16:34:41.254Z,100167.91
2022-08-29T16:37:58.499Z,100171.02
2022-08-29T16:40:57.933Z,100170.15
2022-08-29T16:43:32.670Z,100174.22
2022-08-29T16:46:11.133Z,100180.02
2022-08-29T16:48:41.392Z,100181.92
2022-08-29T16:51:13.513Z,100182.70
2022-08-29T16:56:35.011Z,100178.38
2022-08-29T16:59:04.688Z,100188.40
2022-08-29T17:01:47.723Z,100187.80
2022-08-29T17:04:41.805Z,100194.95
2022-08-29T17:07:15.786Z,100191.77
2022-08-29T17:10:10.568Z,100193.59
2022-08-29T17:12:40.087Z,100197.48
2022-08-29T17:15:09.610Z,100199.87
2022-08-29T17:17:41.002Z,100201.16
2022-08-29T17:20:58.884Z,100204.63
2022-08-29T17:24:16.056Z,100207.31
2022-08-29T17:27:21.285Z,100210.33
2022-08-29T17:34:22.058Z,100212.40
2022-08-29T17:37:06.282Z,100208.85
2022-08-29T17:39:44.841Z,100213.69
2022-08-29T17:42:16.835Z,100211.27
2022-08-29T17:44:54.050Z,100211.23
2022-08-29T17:47:27.456Z,100213.67
2022-08-29T17:50:07.632Z,100213.30
2022-08-29T17:52:45.624Z,100216.01
2022-08-29T17:55:16.032Z,100217.70
2022-08-29T17:57:45.555Z,100219.13
2022-08-29T18:07:49.073Z,100217.33
2022-08-29T18:10:42.883Z,100220.15
2022-08-29T18:13:16.665Z,100230.05
2022-08-29T18:16:06.442Z,100228.95
2022-08-29T18:19:24.254Z,100224.91
2022-08-29T18:22:48.986Z,100232.42
2022-08-29T18:26:03.831Z,100233.77
2022-08-29T18:29:07.740Z,100240.03
2022-08-29T18:31:38.731Z,100242.63
2022-08-29T18:34:10.151Z,100243.64
2022-08-29T18:37:13.011Z,100245.12
2022-08-29T18:39:48.537Z,100244.90
2022-08-29T18:42:38.751Z,100248.83
2022-08-29T18:45:20.854Z,100251.38
2022-08-29T18:48:54.384Z,100257.70
2022-08-29T18:54:46.518Z,100260.66
2022-08-29T18:57:19.991Z,100258.38
2022-08-29T18:59:50.267Z,100257.60
2022-08-29T19:02:21.214Z,100261.11
2022-08-29T19:04:51.301Z,100260.71
2022-08-29T19:07:24.466Z,100256.35
2022-08-29T19:13:31.429Z,100252.11
2022-08-29T19:19:25.454Z,100262.08
2022-08-29T19:21:59.703Z,100264.33
2022-08-29T19:24:34.122Z,100261.50
2022-08-29T19:27:05.032Z,100262.56
2022-08-29T19:30:08.612Z,100262.36
2022-08-29T19:32:49.623Z,100264.29
2022-08-29T19:38:49.826Z,100263.41
2022-08-29T19:45:25.693Z,100265.79
2022-08-29T19:47:55.903Z,100265.78
2022-08-29T19:54:30.255Z,100265.83
2022-08-29T19:57:04.269Z,100265.25
2022-08-29T19:59:36.359Z,100266.29
2022-08-29T20:02:10.583Z,100267.24
2022-08-29T20:04:41.991Z,100272.85
2022-08-29T20:07:20.157Z,100274.27
2022-08-29T20:09:50.855Z,100274.19
2022-08-29T20:12:21.382Z,100273.19
2022-08-29T20:15:39.676Z,100272.85
2022-08-29T20:18:26.117Z,100265.31
2022-08-29T20:25:34.544Z,100271.36
2022-08-29T20:32:41.552Z,100283.02
2022-08-29T20:35:14.256Z,100289.31
2022-08-29T20:37:45.827Z,100286.48
2022-08-29T20:40:47.139Z,100290.58
2022-08-29T20:43:20.170Z,100290.87
2022-08-29T20:45:50.450Z,100290.50
2022-08-29T20:48:21.202Z,100293.59
2022-08-29T20:51:04.920Z,100292.34
2022-08-29T20:53:36.257Z,100296.14
2022-08-29T20:56:10.138Z,100301.54
2022-08-29T20:59:05.198Z,100300.07
2022-08-29T21:02:22.308Z,100302.48
2022-08-29T21:05:48.916Z,100309.48
2022-08-29T21:08:51.764Z,100312.28
2022-08-29T21:11:24.885Z,100309.23
2022-08-29T21:17:49.224Z,100317.95
2022-08-29T21:20:53.959Z,100320.17
2022-08-29T21:23:26.257Z,100326.17
2022-08-29T21:25:57.349Z,100327.27
2022-08-29T21:28:32.180Z,100330.36
2022-08-29T21:31:07.790Z,100332.73
2022-08-29T21:33:39.726Z,100333.81
2022-08-29T21:36:14.706Z,100334.17
2022-08-29T21:40:00.845Z,100335.88
2022-08-29T21:42:33.271Z,100330.30
2022-08-29T21:45:09.744Z,100334.98
2022-08-29T21:47:40.624Z,100331.29
2022-08-29T21:50:14.031Z,100337.13
2022-08-29T21:53:06.749Z,100334.21
2022-08-29T21:55:37.993Z,100336.08
2022-08-29T21:58:08.398Z,100334.37
2022-08-29T22:00:42.429Z,100337.45
2022-08-29T22:03:16.170Z,100339.59
2022-08-29T22:05:47.468Z,100340.42
2022-08-29T22:08:22.367Z,100342.69
2022-08-29T22:10:53.435Z,100348.21
2022-08-29T22:13:23.816Z,100345.60
2022-08-29T22:16:15.146Z,100346.75
2022-08-29T22:19:14.928Z,100349.19
2022-08-29T22:21:56.261Z,100349.36
2022-08-29T22:24:30.438Z,100346.05
2022-08-29T22:27:05.128Z,100349.85
2022-08-29T22:29:35.597Z,100354.14
2022-08-29T22:32:09.242Z,100350.17
2022-08-29T22:34:42.766Z,100348.71
2022-08-29T22:37:14.503Z,100349.88
2022-08-29T22:39:44.334Z,100346.23
2022-08-29T22:42:28.649Z,100347.28
2022-08-29T22:45:04.339Z,100350.02
2022-08-29T22:48:06.247Z,100349.48
2022-08-29T22:50:39.410Z,100347.67
2022-08-29T22:53:10.324Z,100349.51
2022-08-29T22:55:40.923Z,100350.28
2022-08-29T22:58:12.966Z,100351.13
2022-08-29T23:00:42.565Z,100351.02
2022-08-29T23:03:13.061Z,100346.64
2022-08-29T23:05:46.596Z,100345.64
2022-08-29T23:08:50.822Z,100342.61
2022-08-29T23:11:26.048Z,100344.54
2022-08-29T23:13:59.074Z,100348.03
2022-08-29T23:16:33.596Z,100348.07
2022-08-29T23:19:05.381Z,100350.08
2022-08-29T23:21:39.639Z,100353.73
2022-08-29T23:24:14.107Z,100348.30
2022-08-29T23:26:45.829Z,100346.06
2022-08-29T23:29:16.660Z,100346.44
2022-08-29T23:31:47.923Z,100347.33
2022-08-29T23:34:18.894Z,100343.94
2022-08-29T23:36:49.104Z,100345.08
2022-08-29T23:39:24.435Z,100344.98
2022-08-29T23:41:56.577Z,100343.08
2022-08-29T23:44:26.583Z,100345.23
2022-08-29T23:47:02.133Z,100342.05
2022-08-29T23:49:34.778Z,100342.83
2022-08-29T23:52:05.701Z,100344.65
2022-08-29T23:54:39.232Z,100349.44
2022-08-29T23:57:08.935Z,100349.86
2022-08-29T23:59:59.397Z,100349.33
